Time;durP1;ratioP1;P1;durP2;ratioP2;P2;SDS_P1;SDS_P2;PMS_P1;PMS_P2;Temp;Humidity;BMP_temperature;BMP_pressure;BME280_temperature;BME280_humidity;BME280_pressure;Samples;Min_cycle;Max_cycle;Signal;HPM_P1;HPM_P2
2023/08/23 00:01:30;;;;;;;7.00;6.30;;;30.00;96.70;;;;;;5044855;28;20481;-74
2023/08/23 00:03:58;;;;;;;8.07;5.95;;;30.00;96.70;;;;;;5045251;28;20052;-75
2023/08/23 00:06:26;;;;;;;7.00;5.68;;;29.90;96.70;;;;;;5063451;28;20044;-75
2023/08/23 00:08:55;;;;;;;7.30;5.80;;;29.90;96.70;;;;;;5062351;28;20144;-75
2023/08/23 00:11:23;;;;;;;7.35;6.22;;;29.90;96.70;;;;;;5045125;28;20041;-74
2023/08/23 00:13:51;;;;;;;6.45;5.20;;;30.00;96.70;;;;;;5063506;28;20040;-75
2023/08/23 00:16:19;;;;;;;6.53;5.95;;;29.80;96.70;;;;;;5052309;28;20674;-75
2023/08/23 00:18:50;;;;;;;10.15;6.40;;;29.90;96.70;;;;;;5044928;28;20063;-74
2023/08/23 00:21:18;;;;;;;8.32;6.07;;;29.90;96.70;;;;;;5045053;28;20055;-75
2023/08/23 00:23:46;;;;;;;7.80;6.72;;;29.70;96.70;;;;;;5062605;28;20040;-75
2023/08/23 00:26:15;;;;;;;7.00;6.03;;;29.60;96.70;;;;;;5045433;28;20551;-75
2023/08/23 00:28:43;;;;;;;6.55;5.78;;;29.50;96.70;;;;;;5046611;28;20048;-74
2023/08/23 00:31:11;;;;;;;9.20;5.45;;;29.60;96.70;;;;;;5044714;28;20072;-74
2023/08/23 00:33:40;;;;;;;10.13;5.85;;;29.70;96.70;;;;;;5038736;28;20048;-75
2023/08/23 00:36:10;;;;;;;11.80;6.00;;;29.50;96.70;;;;;;5044078;28;20090;-75
2023/08/23 00:38:38;;;;;;;5.88;5.43;;;29.50;96.70;;;;;;5045175;28;20048;-75
2023/08/23 00:41:06;;;;;;;8.68;5.95;;;29.50;96.70;;;;;;5041852;28;20040;-74
2023/08/23 00:43:34;;;;;;;6.35;5.68;;;29.50;96.70;;;;;;5040938;28;20478;-74
2023/08/23 00:46:03;;;;;;;9.95;6.07;;;29.50;96.70;;;;;;5047227;28;20499;-74
2023/08/23 00:48:32;;;;;;;9.20;5.90;;;29.50;96.70;;;;;;5044154;28;20575;-75
2023/08/23 00:51:00;;;;;;;8.40;5.68;;;29.60;96.70;;;;;;5027430;28;20094;-74
2023/08/23 00:53:32;;;;;;;7.10;6.22;;;29.60;96.70;;;;;;5042031;28;20081;-74
2023/08/23 00:56:00;;;;;;;9.38;6.18;;;29.50;96.70;;;;;;5045135;28;20537;-74
2023/08/23 00:58:29;;;;;;;6.47;5.85;;;29.50;96.70;;;;;;5042062;28;20422;-74
2023/08/23 01:00:57;;;;;;;8.30;6.07;;;29.40;96.70;;;;;;5049173;28;20045;-74
2023/08/23 01:03:26;;;;;;;7.45;5.70;;;29.30;96.70;;;;;;5043775;28;20050;-75
2023/08/23 01:06:07;;;;;;;7.47;5.35;;;29.10;96.70;;;;;;5050391;28;20052;-74
2023/08/23 01:08:46;;;;;;;11.82;5.85;;;29.10;96.70;;;;;;5038194;28;20444;-74
2023/08/23 01:11:22;;;;;;;7.35;5.57;;;29.00;96.70;;;;;;5042074;28;20044;-75
2023/08/23 01:13:59;;;;;;;7.75;6.40;;;29.00;96.70;;;;;;5044563;28;20063;-75
2023/08/23 01:16:27;;;;;;;7.45;5.85;;;29.00;96.70;;;;;;5044739;28;20053;-75
2023/08/23 01:18:58;;;;;;;6.65;6.07;;;29.10;96.70;;;;;;5051220;28;20075;-76
2023/08/23 01:21:33;;;;;;;6.22;5.63;;;28.90;96.70;;;;;;5043665;28;20533;-74
2023/08/23 01:24:08;;;;;;;7.15;6.15;;;29.00;96.70;;;;;;5034859;28;20542;-75
2023/08/23 01:26:39;;;;;;;8.50;6.43;;;28.90;96.70;;;;;;5045729;28;20049;-75
2023/08/23 01:29:08;;;;;;;6.45;5.85;;;28.90;96.70;;;;;;5050338;28;20053;-75
2023/08/23 01:31:42;;;;;;;7.80;5.57;;;29.00;96.70;;;;;;5044829;28;20044;-75
2023/08/23 01:34:15;;;;;;;7.05;6.40;;;28.90;96.70;;;;;;5027374;28;20065;-75
2023/08/23 01:36:45;;;;;;;6.85;6.13;;;28.90;96.70;;;;;;5048624;28;20091;-75
2023/08/23 01:39:16;;;;;;;8.50;6.05;;;28.80;96.70;;;;;;5059429;28;20061;-76
2023/08/23 01:41:44;;;;;;;9.27;6.72;;;28.80;96.70;;;;;;5048772;28;20036;-75
2023/08/23 01:44:13;;;;;;;6.38;5.78;;;28.80;96.70;;;;;;5047194;28;20047;-75
2023/08/23 01:46:41;;;;;;;6.53;5.88;;;28.60;96.70;;;;;;5051265;28;20052;-75
2023/08/23 01:49:09;;;;;;;6.50;5.90;;;28.60;96.70;;;;;;5048322;28;20048;-74
2023/08/23 01:51:37;;;;;;;7.63;6.35;;;28.60;96.70;;;;;;5065167;28;20045;-75
2023/08/23 01:54:05;;;;;;;6.65;5.82;;;28.60;96.70;;;;;;5047798;28;20052;-75
2023/08/23 01:56:35;;;;;;;7.57;6.40;;;28.60;96.70;;;;;;5047946;28;20049;-75
2023/08/23 01:59:03;;;;;;;6.03;5.53;;;28.40;96.70;;;;;;5021831;28;20502;-74
2023/08/23 02:01:32;;;;;;;8.98;5.93;;;28.40;96.70;;;;;;5044863;28;20049;-74
2023/08/23 02:04:00;;;;;;;8.93;6.15;;;28.40;96.70;;;;;;5048092;28;20064;-75
2023/08/23 02:06:29;;;;;;;11.48;5.88;;;28.30;96.70;;;;;;5048027;28;20574;-75
2023/08/23 02:08:57;;;;;;;7.40;6.30;;;28.30;96.70;;;;;;5064808;28;20241;-74
2023/08/23 02:11:26;;;;;;;6.25;5.65;;;28.30;96.70;;;;;;5049709;28;20061;-73
2023/08/23 02:13:55;;;;;;;6.05;5.47;;;28.40;96.70;;;;;;5028099;28;20160;-73
2023/08/23 02:16:30;;;;;;;6.93;5.93;;;28.50;96.70;;;;;;5031898;28;20593;-75
2023/08/23 02:18:59;;;;;;;8.05;5.97;;;28.40;96.70;;;;;;5047807;28;20052;-74
2023/08/23 02:21:27;;;;;;;7.05;6.07;;;28.40;96.70;;;;;;5035741;28;20059;-74
2023/08/23 02:23:56;;;;;;;6.28;5.68;;;28.30;96.70;;;;;;5046081;28;20051;-74
2023/08/23 02:26:24;;;;;;;7.05;6.35;;;28.40;96.70;;;;;;5050982;28;20051;-74
2023/08/23 02:28:52;;;;;;;8.00;6.32;;;28.10;96.70;;;;;;5047507;28;20049;-74
2023/08/23 02:31:22;;;;;;;7.05;6.20;;;28.10;96.70;;;;;;5031284;28;20563;-74
2023/08/23 02:33:50;;;;;;;7.78;6.40;;;28.20;96.70;;;;;;5065531;28;20036;-74
2023/08/23 02:36:18;;;;;;;6.78;6.18;;;28.10;96.70;;;;;;5046430;28;20505;-74
2023/08/23 02:38:46;;;;;;;6.53;5.95;;;28.10;96.70;;;;;;5044824;28;20126;-73
2023/08/23 02:41:15;;;;;;;6.63;6.03;;;27.90;96.70;;;;;;5046553;28;20048;-74
2023/08/23 02:43:43;;;;;;;7.60;6.38;;;27.90;96.70;;;;;;5047596;28;20052;-75
2023/08/23 02:46:14;;;;;;;7.07;6.18;;;27.80;96.70;;;;;;5047611;28;20044;-75
2023/08/23 02:48:43;;;;;;;6.57;5.97;;;27.90;96.70;;;;;;5049385;28;20140;-74
2023/08/23 02:51:12;;;;;;;9.20;6.07;;;27.90;96.70;;;;;;5042340;28;20044;-76
2023/08/23 02:53:40;;;;;;;7.45;6.70;;;27.90;96.70;;;;;;5027092;28;20478;-75
2023/08/23 02:56:09;;;;;;;6.60;5.70;;;27.90;96.70;;;;;;5047515;28;20040;-74
2023/08/23 02:58:37;;;;;;;6.68;6.07;;;27.80;96.70;;;;;;5043895;28;20045;-75
2023/08/23 03:01:05;;;;;;;7.63;6.55;;;27.80;96.70;;;;;;5046014;28;20041;-75
2023/08/23 03:03:33;;;;;;;7.43;6.70;;;27.60;96.70;;;;;;5048181;28;20037;-75
2023/08/23 03:06:03;;;;;;;6.63;5.75;;;27.60;96.70;;;;;;5044540;28;20053;-75
2023/08/23 03:08:31;;;;;;;7.25;6.13;;;27.60;96.70;;;;;;5046469;28;20079;-75
2023/08/23 03:11:03;;;;;;;6.97;6.05;;;27.60;96.70;;;;;;5045775;28;20410;-75
2023/08/23 03:13:32;;;;;;;7.05;6.07;;;27.50;96.70;;;;;;5030239;28;20556;-74
2023/08/23 03:16:00;;;;;;;6.53;5.93;;;27.30;96.70;;;;;;5045432;28;20087;-75
2023/08/23 03:18:29;;;;;;;6.85;6.13;;;27.50;96.70;;;;;;5031157;28;20179;-75
2023/08/23 03:20:57;;;;;;;6.80;6.10;;;27.40;96.70;;;;;;5040845;28;20445;-74
2023/08/23 03:23:27;;;;;;;7.53;6.18;;;27.30;96.70;;;;;;5025984;28;20064;-74
2023/08/23 03:25:56;;;;;;;8.77;6.70;;;27.50;96.70;;;;;;5044746;28;20406;-74
2023/08/23 03:28:24;;;;;;;8.27;6.75;;;27.50;96.70;;;;;;5029434;28;20055;-74
2023/08/23 03:30:52;;;;;;;6.45;5.72;;;27.50;96.70;;;;;;5044067;28;20072;-74
2023/08/23 03:33:21;;;;;;;8.68;6.35;;;27.40;96.70;;;;;;5048924;28;20033;-74
2023/08/23 03:35:53;;;;;;;8.23;6.40;;;27.30;96.70;;;;;;5045356;28;20044;-74
2023/08/23 03:38:21;;;;;;;6.75;6.15;;;27.40;96.70;;;;;;5052633;28;20136;-75
2023/08/23 03:40:54;;;;;;;6.65;6.15;;;27.30;96.70;;;;;;5041313;28;20048;-74
2023/08/23 03:43:23;;;;;;;7.03;6.15;;;27.20;96.70;;;;;;5045440;28;20106;-75
2023/08/23 03:45:53;;;;;;;7.95;6.30;;;27.30;96.70;;;;;;5030309;28;20481;-74
2023/08/23 03:48:21;;;;;;;6.55;6.00;;;27.40;96.70;;;;;;5042170;28;20407;-74
2023/08/23 03:50:49;;;;;;;6.75;6.15;;;27.30;96.70;;;;;;5045409;28;20040;-74
2023/08/23 03:53:17;;;;;;;6.45;5.85;;;27.30;96.70;;;;;;5045101;28;20513;-74
2023/08/23 03:55:53;;;;;;;6.95;6.13;;;27.30;96.70;;;;;;5050300;28;20037;-75
2023/08/23 03:58:22;;;;;;;6.72;5.80;;;27.20;96.70;;;;;;5029081;28;20052;-74
2023/08/23 04:00:51;;;;;;;6.47;5.88;;;27.10;96.70;;;;;;5046319;28;20098;-74
2023/08/23 04:03:20;;;;;;;7.22;6.10;;;27.10;96.70;;;;;;5045429;28;20052;-74
2023/08/23 04:05:49;;;;;;;11.88;6.53;;;27.10;96.70;;;;;;5051685;28;20036;-74
2023/08/23 04:08:17;;;;;;;7.53;5.90;;;27.20;96.70;;;;;;5044030;28;20194;-74
2023/08/23 04:10:49;;;;;;;7.30;6.15;;;27.00;96.70;;;;;;5045338;28;20045;-74
2023/08/23 04:13:19;;;;;;;6.82;6.22;;;27.00;96.70;;;;;;5045915;28;20132;-74
2023/08/23 04:15:48;;;;;;;6.90;5.85;;;27.10;96.70;;;;;;5046086;28;20049;-74
2023/08/23 04:18:17;;;;;;;6.80;6.20;;;27.10;96.70;;;;;;5045141;28;20678;-73
2023/08/23 04:20:45;;;;;;;7.38;6.55;;;27.10;96.70;;;;;;5060695;28;20044;-74
2023/08/23 04:23:13;;;;;;;7.00;6.38;;;26.90;96.70;;;;;;5045245;28;20064;-73
2023/08/23 04:25:42;;;;;;;7.60;6.20;;;26.90;96.70;;;;;;5045915;28;20041;-74
2023/08/23 04:28:10;;;;;;;6.97;6.28;;;26.80;96.70;;;;;;5045533;28;20071;-74
2023/08/23 04:30:42;;;;;;;8.80;5.82;;;26.80;96.70;;;;;;5047003;28;20502;-74
2023/08/23 04:33:11;;;;;;;8.68;6.38;;;26.80;96.70;;;;;;5027731;28;20705;-74
2023/08/23 04:35:39;;;;;;;7.30;6.53;;;26.80;96.70;;;;;;5041653;28;20040;-74
2023/08/23 04:38:11;;;;;;;6.93;6.22;;;26.70;96.70;;;;;;5045856;28;20127;-74
2023/08/23 04:40:40;;;;;;;7.25;6.57;;;26.90;96.70;;;;;;5041342;28;20890;-73
2023/08/23 04:43:10;;;;;;;7.05;6.40;;;27.00;96.70;;;;;;5044649;28;20128;-73
2023/08/23 04:45:40;;;;;;;7.82;6.72;;;27.00;96.70;;;;;;5044225;28;20049;-74
2023/08/23 04:48:11;;;;;;;7.10;6.40;;;27.00;96.70;;;;;;5044980;28;20051;-75
2023/08/23 04:50:40;;;;;;;10.50;6.35;;;26.90;96.70;;;;;;5028759;28;20052;-73
2023/08/23 04:53:09;;;;;;;7.00;6.40;;;27.00;96.70;;;;;;5055822;28;20497;-74
2023/08/23 04:55:37;;;;;;;6.80;6.20;;;27.00;96.70;;;;;;5045351;28;20044;-74
2023/08/23 04:58:05;;;;;;;7.30;6.00;;;27.10;96.70;;;;;;5043847;28;20467;-74
2023/08/23 05:00:33;;;;;;;6.93;6.22;;;27.10;96.70;;;;;;5051182;28;20705;-75
2023/08/23 05:03:04;;;;;;;9.88;7.07;;;27.00;96.70;;;;;;5044960;28;20049;-73
2023/08/23 05:05:33;;;;;;;6.82;6.13;;;26.70;96.70;;;;;;5041110;28;20152;-74
2023/08/23 05:08:02;;;;;;;7.78;6.22;;;26.70;96.70;;;;;;5044054;28;20124;-74
2023/08/23 05:10:31;;;;;;;6.28;5.78;;;26.80;96.70;;;;;;5051266;28;20087;-74
2023/08/23 05:13:00;;;;;;;8.63;6.20;;;26.80;96.70;;;;;;5048535;28;20044;-74
2023/08/23 05:15:28;;;;;;;7.03;6.32;;;26.90;96.70;;;;;;5046959;28;20052;-74
2023/08/23 05:17:59;;;;;;;7.47;6.80;;;26.80;96.70;;;;;;5049353;28;20479;-74
2023/08/23 05:20:29;;;;;;;8.50;6.38;;;26.70;96.70;;;;;;5032028;28;20063;-74
2023/08/23 05:22:57;;;;;;;8.02;6.07;;;26.70;96.70;;;;;;5048530;28;20059;-74
2023/08/23 05:25:25;;;;;;;7.88;6.07;;;26.60;96.70;;;;;;5047732;28;20772;-74
2023/08/23 05:27:54;;;;;;;6.68;6.07;;;26.60;96.70;;;;;;5030241;28;20045;-74
2023/08/23 05:30:23;;;;;;;9.90;6.53;;;26.80;96.70;;;;;;5027784;28;20063;-73
2023/08/23 05:32:52;;;;;;;7.28;6.10;;;26.80;96.70;;;;;;5048056;28;20044;-75
2023/08/23 05:35:22;;;;;;;7.95;6.80;;;26.90;96.70;;;;;;5066261;28;20090;-74
2023/08/23 05:37:52;;;;;;;7.15;6.32;;;27.00;96.70;;;;;;5047112;28;20060;-74
2023/08/23 05:40:20;;;;;;;8.73;6.28;;;26.90;96.70;;;;;;5038617;28;20135;-73
2023/08/23 05:42:48;;;;;;;7.53;6.32;;;26.80;96.70;;;;;;5039015;28;20051;-74
2023/08/23 05:45:16;;;;;;;7.28;6.30;;;26.90;96.70;;;;;;5028195;28;20525;-74
2023/08/23 05:47:44;;;;;;;6.45;5.82;;;27.00;96.70;;;;;;5047778;28;20037;-74
2023/08/23 05:50:13;;;;;;;9.32;6.85;;;26.80;96.70;;;;;;5047659;28;20518;-74
2023/08/23 05:52:42;;;;;;;8.75;7.18;;;26.90;96.70;;;;;;5046438;28;20036;-73
2023/08/23 05:55:11;;;;;;;7.30;6.13;;;26.90;96.70;;;;;;5054787;28;20159;-74
2023/08/23 05:57:40;;;;;;;7.15;6.45;;;26.90;96.70;;;;;;5047842;28;20120;-74
2023/08/23 06:00:09;;;;;;;9.50;6.38;;;26.80;96.70;;;;;;5048052;28;20609;-74
2023/08/23 06:02:43;;;;;;;9.55;6.22;;;27.10;96.70;;;;;;5048935;28;20059;-74
2023/08/23 06:05:13;;;;;;;6.60;5.85;;;27.20;96.70;;;;;;5047409;28;20848;-73
2023/08/23 06:07:42;;;;;;;6.35;5.82;;;27.20;96.70;;;;;;5066417;28;20048;-74
2023/08/23 06:10:12;;;;;;;11.60;6.13;;;27.20;96.70;;;;;;5066141;28;20078;-74
2023/08/23 06:12:40;;;;;;;9.27;6.65;;;27.30;96.70;;;;;;5047728;28;20059;-74
2023/08/23 06:15:09;;;;;;;8.10;6.35;;;27.50;96.70;;;;;;5068981;28;20052;-74
2023/08/23 06:17:37;;;;;;;8.70;6.78;;;27.40;96.70;;;;;;5063481;28;20048;-74
2023/08/23 06:20:07;;;;;;;6.88;6.15;;;27.40;96.70;;;;;;5044604;28;20426;-74
2023/08/23 06:22:36;;;;;;;7.53;6.75;;;27.40;96.70;;;;;;5055077;28;20049;-73
2023/08/23 06:25:05;;;;;;;7.53;6.25;;;27.40;96.70;;;;;;5046655;28;20231;-74
2023/08/23 06:27:35;;;;;;;11.27;6.60;;;27.50;96.70;;;;;;5053726;28;20049;-74
2023/08/23 06:30:04;;;;;;;10.00;6.25;;;27.60;96.70;;;;;;5055305;28;20422;-74
2023/08/23 06:32:32;;;;;;;8.23;6.38;;;27.70;96.70;;;;;;5064890;28;20045;-75
2023/08/23 06:35:01;;;;;;;7.38;6.38;;;27.70;96.70;;;;;;5061435;28;20498;-74
2023/08/23 06:37:30;;;;;;;8.52;6.50;;;27.70;96.70;;;;;;5030274;28;20477;-74
2023/08/23 06:39:58;;;;;;;9.55;7.00;;;27.80;96.70;;;;;;5065220;28;20567;-76
2023/08/23 06:42:26;;;;;;;7.05;6.35;;;27.80;96.70;;;;;;5064940;28;20051;-75
2023/08/23 06:44:56;;;;;;;7.78;6.60;;;27.90;96.70;;;;;;5046281;28;20057;-75
2023/08/23 06:47:24;;;;;;;7.45;5.82;;;27.90;96.70;;;;;;5046000;28;20528;-76
2023/08/23 06:49:53;;;;;;;7.38;6.50;;;27.90;96.70;;;;;;5065248;28;20051;-75
2023/08/23 06:52:21;;;;;;;7.55;6.78;;;27.90;96.70;;;;;;5028939;28;20098;-74
2023/08/23 06:54:49;;;;;;;7.15;6.05;;;28.00;96.70;;;;;;5029010;28;20036;-75
2023/08/23 06:57:17;;;;;;;7.60;6.65;;;27.90;96.70;;;;;;5046177;28;20053;-75
2023/08/23 06:59:46;;;;;;;7.47;6.35;;;27.90;96.70;;;;;;5044314;28;20045;-72
2023/08/23 07:02:15;;;;;;;7.85;6.40;;;28.10;96.70;;;;;;5046220;28;20040;-75
2023/08/23 07:04:43;;;;;;;9.25;6.35;;;28.10;96.70;;;;;;5062151;28;20044;-75
2023/08/23 07:07:11;;;;;;;10.35;6.65;;;28.10;96.70;;;;;;5046343;28;20060;-75
2023/08/23 07:09:40;;;;;;;7.40;5.88;;;28.20;96.70;;;;;;5056233;28;20045;-76
2023/08/23 07:12:08;;;;;;;6.65;5.88;;;28.30;96.70;;;;;;5062791;28;20135;-77
2023/08/23 07:14:36;;;;;;;8.38;6.25;;;28.40;96.70;;;;;;5064903;28;20079;-76
2023/08/23 07:17:04;;;;;;;8.32;6.60;;;28.40;96.70;;;;;;5046728;28;20036;-76
2023/08/23 07:19:33;;;;;;;6.85;6.05;;;28.40;96.70;;;;;;5045922;28;20502;-77
2023/08/23 07:22:02;;;;;;;8.07;5.90;;;28.50;96.70;;;;;;5063690;28;20044;-77
2023/08/23 07:24:30;;;;;;;8.52;5.75;;;28.60;96.70;;;;;;5046011;28;20092;-77
2023/08/23 07:26:58;;;;;;;6.95;6.25;;;28.60;96.70;;;;;;5046312;28;20632;-76
2023/08/23 07:29:26;;;;;;;7.75;6.05;;;28.60;96.70;;;;;;5061270;28;20057;-76
2023/08/23 07:31:55;;;;;;;8.88;5.97;;;28.70;96.70;;;;;;5044967;28;20058;-77
2023/08/23 07:34:23;;;;;;;7.82;6.40;;;28.70;96.70;;;;;;5057604;28;20224;-75
2023/08/23 07:36:54;;;;;;;6.43;5.82;;;28.80;96.70;;;;;;5062541;28;20891;-75
2023/08/23 07:39:25;;;;;;;6.60;6.00;;;29.00;96.70;;;;;;5042968;28;20053;-74
2023/08/23 07:41:54;;;;;;;8.18;6.28;;;29.10;96.70;;;;;;5037667;28;20122;-76
2023/08/23 07:44:22;;;;;;;9.23;6.55;;;29.20;96.70;;;;;;5027592;28;20045;-81
2023/08/23 07:46:53;;;;;;;6.68;6.00;;;29.20;96.70;;;;;;5042394;28;20045;-77
2023/08/23 07:49:21;;;;;;;8.80;5.88;;;29.30;96.70;;;;;;5043142;28;20551;-75
2023/08/23 07:51:49;;;;;;;7.47;6.10;;;29.40;96.70;;;;;;5045532;28;20406;-75
2023/08/23 07:54:18;;;;;;;5.85;5.40;;;29.50;96.70;;;;;;5044263;28;20044;-77
2023/08/23 07:56:46;;;;;;;9.40;5.40;;;29.60;96.70;;;;;;5033829;28;20183;-76
2023/08/23 07:59:14;;;;;;;5.90;5.30;;;29.70;96.70;;;;;;5045527;28;20048;-77
2023/08/23 08:01:43;;;;;;;6.90;5.10;;;29.70;96.70;;;;;;5045681;28;20047;-77
2023/08/23 08:04:11;;;;;;;5.93;5.30;;;29.80;96.70;;;;;;5041651;28;20128;-75
2023/08/23 08:06:39;;;;;;;6.05;5.43;;;29.90;96.70;;;;;;5043812;28;20052;-75
2023/08/23 08:09:07;;;;;;;7.00;5.38;;;29.90;96.70;;;;;;5045201;28;20040;-76
2023/08/23 08:11:37;;;;;;;8.40;5.28;;;30.00;96.70;;;;;;5060576;28;20044;-76
2023/08/23 08:14:05;;;;;;;7.88;5.45;;;30.00;96.70;;;;;;5046976;28;20040;-76
2023/08/23 08:16:33;;;;;;;6.03;5.30;;;30.00;96.70;;;;;;5041917;28;20049;-76
2023/08/23 08:19:01;;;;;;;10.63;5.45;;;30.10;96.70;;;;;;5059428;28;20051;-76
2023/08/23 08:21:29;;;;;;;7.28;5.45;;;30.20;96.70;;;;;;5043217;28;20051;-75
2023/08/23 08:23:58;;;;;;;5.80;4.72;;;30.30;96.70;;;;;;5044204;28;20168;-75
2023/08/23 08:26:26;;;;;;;5.28;4.70;;;30.40;96.70;;;;;;5045670;28;20407;-76
2023/08/23 08:28:56;;;;;;;5.50;5.00;;;30.50;96.70;;;;;;5053098;28;20396;-76
2023/08/23 08:31:24;;;;;;;5.97;5.05;;;30.60;96.70;;;;;;5045131;28;20555;-77
2023/08/23 08:33:52;;;;;;;6.70;4.75;;;30.50;96.70;;;;;;5044141;28;20076;-76
2023/08/23 08:36:20;;;;;;;7.30;4.85;;;30.40;96.70;;;;;;5045149;28;20068;-76
2023/08/23 08:38:47;;;;;;;8.02;4.72;;;30.60;96.70;;;;;;5044987;28;20044;-74
2023/08/23 08:41:16;;;;;;;5.82;4.63;;;30.60;96.70;;;;;;5058565;28;20441;-78
2023/08/23 08:43:44;;;;;;;5.57;5.07;;;30.70;96.70;;;;;;5047580;28;20052;-78
2023/08/23 08:46:14;;;;;;;7.57;5.10;;;30.70;96.70;;;;;;5047010;28;20036;-80
2023/08/23 08:48:49;;;;;;;7.72;5.40;;;30.80;96.70;;;;;;5066641;28;20433;-78
2023/08/23 08:51:21;;;;;;;7.15;4.72;;;31.00;96.70;;;;;;5047772;28;20071;-78
2023/08/23 08:53:51;;;;;;;5.22;4.63;;;30.90;96.70;;;;;;5048948;28;20740;-78
2023/08/23 08:56:20;;;;;;;5.10;4.60;;;30.90;96.70;;;;;;5046184;28;20414;-80
2023/08/23 08:58:53;;;;;;;5.18;4.78;;;31.10;96.70;;;;;;5048484;28;20042;-78
2023/08/23 09:01:23;;;;;;;5.35;4.85;;;31.30;96.70;;;;;;5051895;28;20052;-78
2023/08/23 09:03:51;;;;;;;4.55;4.15;;;31.40;96.70;;;;;;5059946;28;20041;-78
2023/08/23 09:06:20;;;;;;;6.47;5.10;;;31.60;96.70;;;;;;5050271;28;20049;-78
2023/08/23 09:08:49;;;;;;;5.80;5.13;;;31.80;96.70;;;;;;5048903;28;20605;-80
2023/08/23 09:11:16;;;;;;;5.57;5.00;;;31.90;96.70;;;;;;5064987;28;20094;-79
2023/08/23 09:13:48;;;;;;;6.28;4.93;;;31.90;96.70;;;;;;5047042;28;20052;-79
2023/08/23 09:16:16;;;;;;;5.15;4.60;;;32.10;96.70;;;;;;5060734;28;20044;-79
2023/08/23 09:18:46;;;;;;;4.78;4.43;;;32.30;96.70;;;;;;5046809;28;20051;-77
2023/08/23 09:21:14;;;;;;;7.00;4.82;;;32.40;96.70;;;;;;5047858;28;20037;-78
2023/08/23 09:23:42;;;;;;;6.65;5.28;;;32.40;96.70;;;;;;5062543;28;20033;-77
2023/08/23 09:26:10;;;;;;;5.78;4.47;;;32.50;96.70;;;;;;5038566;28;20121;-77
2023/08/23 09:28:38;;;;;;;8.20;5.25;;;32.70;96.70;;;;;;5046872;28;20052;-77
2023/08/23 09:31:10;;;;;;;6.38;4.78;;;32.80;96.70;;;;;;5043425;28;20427;-79
2023/08/23 09:33:38;;;;;;;6.72;5.32;;;33.00;96.70;;;;;;5042700;28;20041;-78
2023/08/23 09:36:08;;;;;;;6.03;4.85;;;33.10;96.70;;;;;;5045409;28;20081;-78
2023/08/23 09:38:35;;;;;;;5.43;4.78;;;32.90;96.70;;;;;;5046718;28;20099;-79
2023/08/23 09:41:03;;;;;;;6.63;5.15;;;33.00;96.70;;;;;;5045218;28;20045;-78
2023/08/23 09:43:34;;;;;;;5.82;5.22;;;33.20;96.70;;;;;;5045432;28;20041;-78
2023/08/23 09:46:04;;;;;;;5.43;5.03;;;33.30;96.70;;;;;;5046733;28;20047;-78
2023/08/23 09:48:36;;;;;;;5.78;5.28;;;33.10;96.70;;;;;;5044599;28;20044;-78
2023/08/23 09:51:05;;;;;;;6.22;5.63;;;32.90;96.70;;;;;;5028659;28;20783;-79
2023/08/23 09:53:40;;;;;;;6.53;5.70;;;33.10;96.70;;;;;;5044901;28;20139;-78
2023/08/23 09:56:10;;;;;;;7.22;5.03;;;33.20;96.70;;;;;;5044473;28;20867;-79
2023/08/23 09:58:39;;;;;;;6.07;4.63;;;33.40;96.70;;;;;;5046512;28;20045;-78
2023/08/23 10:01:08;;;;;;;5.15;4.75;;;33.70;96.70;;;;;;5041794;28;20093;-79
2023/08/23 10:03:37;;;;;;;6.85;5.85;;;34.10;96.70;;;;;;5038567;28;20041;-78
2023/08/23 10:06:05;;;;;;;5.90;4.85;;;34.30;96.70;;;;;;5046309;28;20088;-78
2023/08/23 10:08:36;;;;;;;6.65;4.85;;;34.60;96.70;;;;;;5048020;28;20307;-78
2023/08/23 10:11:04;;;;;;;9.40;5.38;;;34.70;96.70;;;;;;5044458;28;20519;-78
2023/08/23 10:13:34;;;;;;;4.95;4.55;;;34.60;96.70;;;;;;5044196;28;20565;-77
2023/08/23 10:16:04;;;;;;;6.32;4.90;;;34.80;96.70;;;;;;5036372;28;20044;-78
2023/08/23 10:18:34;;;;;;;5.15;4.60;;;34.90;96.70;;;;;;5046203;28;20037;-78
2023/08/23 10:21:03;;;;;;;4.65;4.07;;;35.00;96.70;;;;;;5044487;28;20230;-78
2023/08/23 10:23:36;;;;;;;4.90;4.13;;;35.30;96.70;;;;;;5044124;28;20049;-78
2023/08/23 10:26:04;;;;;;;6.65;4.80;;;35.60;96.70;;;;;;5045754;28;20041;-78
2023/08/23 10:28:47;;;;;;;5.32;4.82;;;35.40;96.70;;;;;;5036462;28;20128;-78
2023/08/23 10:31:20;;;;;;;6.50;5.28;;;35.20;96.70;;;;;;5026595;28;20143;-78
2023/08/23 10:33:54;;;;;;;5.75;4.60;;;35.30;96.70;;;;;;5025971;28;20052;-79
2023/08/23 10:36:26;;;;;;;4.63;4.22;;;35.50;96.70;;;;;;5019009;28;20042;-79
2023/08/23 10:38:56;;;;;;;6.30;4.60;;;35.90;96.70;;;;;;5034508;28;20148;-78
2023/08/23 10:41:25;;;;;;;5.07;4.57;;;36.20;96.70;;;;;;5038245;28;20149;-78
2023/08/23 10:43:54;;;;;;;5.45;4.50;;;36.00;96.70;;;;;;5031356;28;20613;-79
2023/08/23 10:46:22;;;;;;;4.63;4.22;;;35.90;96.70;;;;;;5045404;28;20044;-79
2023/08/23 10:48:51;;;;;;;5.00;4.60;;;36.30;96.70;;;;;;5033050;28;20044;-79
2023/08/23 10:51:19;;;;;;;5.32;4.43;;;36.00;96.70;;;;;;5016192;28;20057;-79
2023/08/23 10:53:47;;;;;;;4.50;3.88;;;36.10;96.70;;;;;;5036394;28;20045;-80
2023/08/23 10:56:18;;;;;;;5.10;4.60;;;36.30;96.70;;;;;;5017150;28;20460;-79
2023/08/23 10:58:45;;;;;;;5.40;4.55;;;36.30;96.70;;;;;;5024043;28;20045;-79
2023/08/23 11:01:13;;;;;;;7.53;4.47;;;35.80;96.70;;;;;;5041518;28;20079;-80
2023/08/23 11:03:42;;;;;;;5.47;4.95;;;36.00;96.70;;;;;;5028061;28;20041;-79
2023/08/23 11:06:10;;;;;;;4.40;4.00;;;36.10;96.70;;;;;;5039834;28;20092;-79
2023/08/23 11:08:43;;;;;;;4.32;4.00;;;35.90;96.70;;;;;;5028858;28;20508;-78
2023/08/23 11:11:12;;;;;;;6.80;4.38;;;35.80;96.70;;;;;;5031818;28;20044;-78
2023/08/23 11:13:42;;;;;;;4.88;4.38;;;36.10;96.70;;;;;;5032563;28;20053;-79
2023/08/23 11:16:11;;;;;;;4.47;4.10;;;36.10;96.70;;;;;;5033950;28;20052;-79
2023/08/23 11:18:39;;;;;;;4.47;4.00;;;36.80;96.70;;;;;;5026200;28;20034;-81
2023/08/23 11:21:09;;;;;;;4.88;4.38;;;36.90;96.70;;;;;;5029470;28;20091;-79
2023/08/23 11:23:38;;;;;;;8.00;4.18;;;36.80;96.70;;;;;;5015605;28;20048;-78
2023/08/23 11:26:07;;;;;;;4.93;4.45;;;37.10;96.70;;;;;;5032165;28;20503;-78
2023/08/23 11:28:35;;;;;;;4.75;4.35;;;37.40;96.70;;;;;;5040253;28;20076;-78
2023/08/23 11:31:08;;;;;;;4.88;4.47;;;37.50;96.70;;;;;;5055946;28;20650;-78
2023/08/23 11:33:39;;;;;;;4.57;3.85;;;37.70;96.70;;;;;;5045862;28;20052;-79
2023/08/23 11:36:09;;;;;;;6.70;5.32;;;37.60;96.70;;;;;;5029780;28;20056;-78
2023/08/23 11:38:39;;;;;;;4.47;4.07;;;37.70;96.70;;;;;;5045797;28;20470;-79
2023/08/23 11:41:08;;;;;;;5.00;4.35;;;37.80;96.70;;;;;;5038409;28;20056;-79
2023/08/23 11:43:44;;;;;;;4.57;3.97;;;37.20;96.70;;;;;;5046151;28;20052;-79
2023/08/23 11:46:14;;;;;;;4.45;4.05;;;37.20;96.70;;;;;;5064041;28;20041;-79
2023/08/23 11:48:42;;;;;;;4.50;4.10;;;37.70;96.70;;;;;;5045809;28;20571;-78
2023/08/23 11:51:11;;;;;;;3.13;2.67;;;37.80;95.70;;;;;;5062674;28;20052;-81
2023/08/23 11:53:49;;;;;;;4.45;3.42;;;38.00;91.20;;;;;;5041865;28;20434;-79
2023/08/23 11:56:19;;;;;;;3.75;3.00;;;38.20;92.20;;;;;;5042115;28;20049;-81
2023/08/23 11:58:47;;;;;;;4.97;2.70;;;38.40;91.90;;;;;;5046359;28;20383;-81
2023/08/23 12:01:19;;;;;;;5.10;3.13;;;38.70;91.10;;;;;;5072673;28;20529;-81
2023/08/23 12:03:47;;;;;;;2.97;2.60;;;39.10;89.70;;;;;;5045517;28;20048;-79
2023/08/23 12:06:16;;;;;;;3.25;2.95;;;39.30;89.10;;;;;;5045366;28;20033;-80
2023/08/23 12:08:44;;;;;;;3.40;3.10;;;39.10;89.10;;;;;;5058608;28;20056;-80
2023/08/23 12:11:12;;;;;;;3.47;2.80;;;39.00;89.00;;;;;;5045579;28;20103;-80
2023/08/23 12:13:42;;;;;;;4.03;2.85;;;39.20;87.60;;;;;;5053974;28;20099;-81
2023/08/23 12:16:10;;;;;;;4.13;3.03;;;39.40;87.80;;;;;;5063001;28;20040;-80
2023/08/23 12:18:41;;;;;;;2.95;2.75;;;39.70;87.60;;;;;;5027613;28;20172;-80
2023/08/23 12:21:09;;;;;;;3.00;2.80;;;39.80;86.90;;;;;;5044040;28;20114;-79
2023/08/23 12:23:38;;;;;;;2.97;2.72;;;39.90;86.40;;;;;;5045486;28;20451;-79
2023/08/23 12:26:06;;;;;;;2.80;2.60;;;39.90;86.30;;;;;;5055299;28;20048;-78
2023/08/23 12:28:37;;;;;;;3.50;2.67;;;40.00;85.90;;;;;;5045060;28;20049;-78
2023/08/23 12:31:06;;;;;;;2.50;2.30;;;39.90;85.90;;;;;;5063133;28;20110;-79
2023/08/23 12:33:34;;;;;;;3.97;2.85;;;39.80;86.00;;;;;;5041912;28;20095;-79
2023/08/23 12:36:05;;;;;;;3.72;2.58;;;39.90;86.50;;;;;;5059964;28;20641;-79
2023/08/23 12:38:33;;;;;;;3.03;2.80;;;40.20;86.20;;;;;;5044651;28;20056;-78
2023/08/23 12:41:02;;;;;;;3.65;3.00;;;40.30;85.30;;;;;;5045037;28;20044;-80
2023/08/23 12:43:32;;;;;;;3.72;2.60;;;40.40;85.90;;;;;;5029333;28;20052;-78
2023/08/23 12:46:01;;;;;;;5.18;3.03;;;40.60;84.80;;;;;;5045385;28;20045;-79
2023/08/23 12:48:29;;;;;;;3.10;2.80;;;40.70;84.80;;;;;;5060077;28;20041;-79
2023/08/23 12:50:58;;;;;;;3.88;2.83;;;40.70;84.80;;;;;;5040486;28;20071;-80
2023/08/23 12:53:28;;;;;;;3.67;2.63;;;40.70;83.50;;;;;;5044101;28;20044;-79
2023/08/23 12:55:56;;;;;;;2.50;2.30;;;40.60;83.60;;;;;;5060980;28;20044;-79